createdAt,value
2019-04-07T00:02:17.041Z,90.40
2019-04-07T00:07:24.189Z,98.23
2019-04-07T00:12:29.969Z,97.03
2019-04-07T00:17:35.155Z,99.17
2019-04-07T00:22:40.580Z,96.77
2019-04-07T00:27:45.798Z,101.83
2019-04-07T00:32:51.135Z,104.93
2019-04-07T00:37:58.626Z,98.93
2019-04-07T00:43:06.910Z,96.57
2019-04-07T00:48:13.088Z,97.27
2019-04-07T00:53:19.986Z,96.63
2019-04-07T00:58:24.887Z,93.93
2019-04-07T01:03:31.339Z,95.53
2019-04-07T01:08:36.402Z,94.93
2019-04-07T01:13:42.777Z,97.40
2019-04-07T01:18:48.109Z,98.57
2019-04-07T01:23:53.338Z,99.07
2019-04-07T01:28:58.178Z,94.87
2019-04-07T01:34:04.362Z,98.37
2019-04-07T01:39:11.963Z,100.43
2019-04-07T01:44:43.210Z,99.23
2019-04-07T01:50:10.004Z,99.00
2019-04-07T01:55:35.720Z,102.13
2019-04-07T02:00:48.936Z,99.90
2019-04-07T02:06:16.827Z,101.63
2019-04-07T02:11:50.464Z,97.43
2019-04-07T02:17:01.903Z,101.93
2019-04-07T02:22:23.837Z,100.77
2019-04-07T02:27:34.819Z,102.53
2019-04-07T02:32:58.839Z,102.60
2019-04-07T02:38:08.895Z,105.87
2019-04-07T02:43:26.221Z,100.73
2019-04-07T02:48:39.855Z,104.00
2019-04-07T02:54:22.781Z,98.40
2019-04-07T02:59:46.406Z,104.50
2019-04-07T03:05:04.167Z,103.23
2019-04-07T03:10:27.369Z,102.60
2019-04-07T03:15:50.529Z,105.53
2019-04-07T03:21:07.690Z,101.90
2019-04-07T03:26:48.966Z,102.83
2019-04-07T03:32:38.405Z,100.33
2019-04-07T03:37:53.137Z,105.13
2019-04-07T03:43:13.633Z,101.80
2019-04-07T03:48:28.353Z,103.50
2019-04-07T03:53:54.021Z,102.23
2019-04-07T03:59:05.764Z,97.50
2019-04-07T04:04:34.701Z,97.53
2019-04-07T04:09:45.489Z,102.50
2019-04-07T04:15:00.237Z,102.73
2019-04-07T04:20:07.057Z,104.83
2019-04-07T04:25:12.630Z,94.30
2019-04-07T04:30:18.860Z,100.90
2019-04-07T04:35:24.549Z,101.27
2019-04-07T04:40:30.299Z,99.67
2019-04-07T04:45:36.257Z,96.73
2019-04-07T04:50:42.039Z,98.07
2019-04-07T04:55:47.248Z,100.20
2019-04-07T05:00:52.468Z,98.53
2019-04-07T05:05:58.881Z,101.83
2019-04-07T05:11:04.375Z,92.90
2019-04-07T05:16:10.612Z,98.80
2019-04-07T05:21:16.475Z,98.87
2019-04-07T05:26:21.436Z,98.73
2019-04-07T05:31:27.177Z,99.33
2019-04-07T05:36:32.512Z,98.93
2019-04-07T05:41:37.351Z,96.80
2019-04-07T05:46:42.630Z,95.17
2019-04-07T05:51:48.240Z,92.07
2019-04-07T05:56:53.412Z,86.03
2019-04-07T06:02:02.507Z,90.60
2019-04-07T06:07:11.366Z,90.57
2019-04-07T06:12:19.330Z,94.70
2019-04-07T06:17:26.312Z,88.80
2019-04-07T06:22:35.001Z,84.53
2019-04-07T06:27:40.550Z,85.03
2019-04-07T06:32:46.231Z,79.77
2019-04-07T06:37:52.037Z,79.27
2019-04-07T06:42:57.873Z,80.30
2019-04-07T06:48:07.438Z,76.47
2019-04-07T06:53:29.049Z,76.30
2019-04-07T06:58:53.212Z,75.07
2019-04-07T07:04:26.579Z,74.50
2019-04-07T07:09:41.792Z,74.67
2019-04-07T07:15:04.695Z,72.00
2019-04-07T07:20:27.695Z,64.67
2019-04-07T07:25:32.214Z,69.07
2019-04-07T07:30:37.606Z,70.03
2019-04-07T07:35:46.891Z,67.32
2019-04-07T07:40:50.128Z,63.55
2019-04-07T07:45:55.591Z,62.15
2019-04-07T07:51:01.170Z,64.60
2019-04-07T07:56:11.550Z,70.40
2019-04-07T08:01:15.963Z,64.80
2019-04-07T08:06:22.649Z,61.50
2019-04-07T08:11:31.537Z,58.02
2019-04-07T08:16:37.290Z,55.43
2019-04-07T08:21:43.620Z,50.25
2019-04-07T08:26:48.845Z,50.95
2019-04-07T08:31:55.429Z,49.25
2019-04-07T08:37:02.805Z,49.63
2019-04-07T08:42:11.934Z,47.50
2019-04-07T08:47:20.707Z,45.88
2019-04-07T08:52:23.377Z,44.75
2019-04-07T08:57:30.538Z,50.25
2019-04-07T09:02:34.826Z,57.98
2019-04-07T09:07:40.058Z,47.40
2019-04-07T09:12:46.124Z,46.25
2019-04-07T09:17:57.851Z,48.05
2019-04-07T09:23:12.403Z,44.00
2019-04-07T09:28:33.177Z,43.70
2019-04-07T09:33:57.182Z,45.03
2019-04-07T09:39:31.442Z,44.13
2019-04-07T09:44:53.898Z,43.83
2019-04-07T09:50:19.645Z,45.90
2019-04-07T09:55:41.116Z,43.42
2019-04-07T10:01:00.226Z,42.65
2019-04-07T10:06:24.754Z,43.10
2019-04-07T10:11:49.539Z,44.08
2019-04-07T10:17:05.149Z,43.58
2019-04-07T10:22:38.460Z,40.00
2019-04-07T10:28:02.981Z,38.35
2019-04-07T10:33:20.301Z,40.08
2019-04-07T10:38:45.124Z,40.40
2019-04-07T10:43:55.999Z,37.05
2019-04-07T10:49:19.163Z,38.13
2019-04-07T10:54:35.999Z,36.13
2019-04-07T10:59:49.475Z,34.65
2019-04-07T11:05:14.111Z,33.70
2019-04-07T11:10:39.042Z,35.28
2019-04-07T11:16:05.033Z,37.23
2019-04-07T11:21:18.468Z,34.05
2019-04-07T11:26:51.770Z,35.20
2019-04-07T11:32:06.534Z,33.60
2019-04-07T11:37:29.249Z,30.85
2019-04-07T11:42:52.342Z,29.00
2019-04-07T11:48:20.967Z,27.82
2019-04-07T11:53:41.624Z,28.12
2019-04-07T11:58:59.189Z,26.42
2019-04-07T12:04:29.571Z,23.47
2019-04-07T12:09:52.650Z,19.55
2019-04-07T12:15:12.098Z,20.80
2019-04-07T12:20:33.840Z,20.68
2019-04-07T12:25:44.002Z,21.93
2019-04-07T12:31:07.545Z,20.12
2019-04-07T12:36:31.789Z,20.37
2019-04-07T12:41:58.081Z,20.17
2019-04-07T12:47:14.546Z,19.10
2019-04-07T12:52:38.021Z,18.37
2019-04-07T12:57:50.884Z,17.23
2019-04-07T13:03:18.163Z,18.17
2019-04-07T13:08:41.337Z,17.40
2019-04-07T13:14:08.094Z,15.20
2019-04-07T13:19:20.213Z,13.72
2019-04-07T13:24:39.052Z,15.55
2019-04-07T13:29:51.856Z,15.43
2019-04-07T13:35:22.480Z,16.40
2019-04-07T13:40:47.078Z,16.17
2019-04-07T13:46:28.515Z,16.55
2019-04-07T13:51:40.528Z,19.00
2019-04-07T13:57:03.391Z,19.02
2019-04-07T14:02:17.614Z,19.17
2019-04-07T14:07:41.635Z,18.75
2019-04-07T14:12:58.660Z,17.73
2019-04-07T14:18:14.421Z,14.93
2019-04-07T14:23:28.690Z,13.80
2019-04-07T14:28:41.158Z,15.80
2019-04-07T14:34:07.421Z,14.20
2019-04-07T14:39:27.207Z,14.87
2019-04-07T14:44:55.568Z,14.98
2019-04-07T14:50:09.863Z,16.02
2019-04-07T14:55:34.689Z,14.03
2019-04-07T15:01:19.092Z,14.70
2019-04-07T15:06:31.187Z,15.93
2019-04-07T15:11:58.777Z,13.32
2019-04-07T15:17:04.712Z,15.38
2019-04-07T15:22:09.705Z,14.23
2019-04-07T15:27:15.468Z,17.73
2019-04-07T15:32:24.371Z,16.20
2019-04-07T15:37:28.140Z,14.85
2019-04-07T15:42:40.340Z,14.83
2019-04-07T15:47:40.481Z,14.60
2019-04-07T15:52:46.979Z,13.48
2019-04-07T15:57:55.578Z,16.17
2019-04-07T16:03:00.119Z,16.10
2019-04-07T16:08:06.858Z,16.87
2019-04-07T16:13:12.873Z,16.17
2019-04-07T16:18:18.964Z,18.37
2019-04-07T16:23:26.200Z,16.82
2019-04-07T16:28:31.917Z,19.50
2019-04-07T16:33:38.790Z,14.93
2019-04-07T16:38:47.068Z,14.98
2019-04-07T16:43:52.724Z,16.82
2019-04-07T16:48:58.724Z,16.65
2019-04-07T16:54:08.207Z,18.32
2019-04-07T16:59:11.022Z,16.17
2019-04-07T17:04:16.996Z,15.08
2019-04-07T17:09:25.902Z,15.93
2019-04-07T17:14:33.685Z,15.75
2019-04-07T17:19:37.289Z,17.15
2019-04-07T17:24:42.778Z,15.88
2019-04-07T17:29:53.283Z,14.65
2019-04-07T17:34:56.371Z,15.75
2019-04-07T17:40:13.191Z,16.48
2019-04-07T17:45:35.393Z,17.87
2019-04-07T17:51:04.568Z,16.80
2019-04-07T17:56:29.814Z,14.38
2019-04-07T18:01:56.403Z,30.12
2019-04-07T18:07:12.035Z,15.43
2019-04-07T18:12:49.656Z,14.45
2019-04-07T18:18:18.785Z,15.05
2019-04-07T18:23:34.645Z,16.45
2019-04-07T18:28:58.525Z,16.10
2019-04-07T18:34:14.260Z,15.65
2019-04-07T18:39:36.950Z,14.83
2019-04-07T18:45:12.186Z,15.98
2019-04-07T18:50:45.463Z,17.77
2019-04-07T18:56:09.841Z,15.65
2019-04-07T19:01:25.434Z,16.10
2019-04-07T19:06:52.706Z,15.88
2019-04-07T19:12:20.750Z,15.88
2019-04-07T19:17:46.743Z,16.27
2019-04-07T19:23:11.333Z,14.68
2019-04-07T19:28:28.371Z,16.07
2019-04-07T19:34:02.547Z,17.32
2019-04-07T19:39:29.662Z,16.42
2019-04-07T19:44:51.043Z,15.55
2019-04-07T19:50:10.809Z,15.58
2019-04-07T19:55:34.631Z,16.48
2019-04-07T20:01:00.141Z,17.17
2019-04-07T20:06:41.985Z,16.65
2019-04-07T20:12:20.649Z,17.35
2019-04-07T20:17:50.557Z,15.75
2019-04-07T20:23:18.376Z,15.93
2019-04-07T20:28:34.225Z,15.23
2019-04-07T20:34:03.774Z,14.43
2019-04-07T20:39:40.045Z,14.87
2019-04-07T20:45:22.719Z,16.25
2019-04-07T20:50:50.105Z,15.68
2019-04-07T20:56:31.441Z,14.20
2019-04-07T21:02:05.890Z,16.10
2019-04-07T21:07:18.790Z,14.90
2019-04-07T21:12:37.877Z,18.70
2019-04-07T21:17:52.395Z,14.47
2019-04-07T21:23:25.831Z,17.37
2019-04-07T21:28:52.908Z,15.72
2019-04-07T21:34:32.380Z,14.23
2019-04-07T21:39:54.336Z,15.43
2019-04-07T21:45:10.975Z,14.45
2019-04-07T21:50:41.125Z,15.95
2019-04-07T21:55:56.004Z,16.32
2019-04-07T22:01:16.658Z,15.65
2019-04-07T22:06:46.641Z,13.22
2019-04-07T22:11:55.854Z,13.95
2019-04-07T22:17:02.834Z,14.47
2019-04-07T22:22:08.787Z,13.90
2019-04-07T22:27:17.536Z,12.93
2019-04-07T22:32:23.048Z,13.60
2019-04-07T22:37:28.222Z,13.80
2019-04-07T22:42:33.482Z,13.05
2019-04-07T22:47:40.579Z,13.72
2019-04-07T22:52:49.164Z,16.35
2019-04-07T22:57:52.611Z,13.13
2019-04-07T23:03:00.346Z,15.85
2019-04-07T23:08:05.639Z,14.65
2019-04-07T23:13:11.742Z,13.05
2019-04-07T23:18:17.813Z,15.18
2019-04-07T23:23:23.931Z,15.23
2019-04-07T23:28:28.995Z,14.33
2019-04-07T23:33:34.762Z,14.03
2019-04-07T23:38:41.082Z,15.18
2019-04-07T23:43:45.958Z,14.58
2019-04-07T23:48:52.376Z,14.73
2019-04-07T23:54:14.339Z,15.50
2019-04-07T23:59:21.267Z,15.25
